sensor_id;sensor_type;location;lat;lon;timestamp;pressure;altitude;pressure_sealevel;temperature;humidity
67738;BME280;54534;43.612;1.572;2022-09-09T00:00:13;99152.44;;;24.74;45.86
67738;BME280;54534;43.612;1.572;2022-09-09T00:02:43;99152.63;;;24.73;46.11
67738;BME280;54534;43.612;1.572;2022-09-09T00:05:28;99146.41;;;24.72;46.43
67738;BME280;54534;43.612;1.572;2022-09-09T00:07:58;99165.22;;;24.72;46.01
67738;BME280;54534;43.612;1.572;2022-09-09T00:15:25;99155.66;;;24.70;46.15
67738;BME280;54534;43.612;1.572;2022-09-09T00:20:32;99155.81;;;24.68;45.92
67738;BME280;54534;43.612;1.572;2022-09-09T00:23:14;99147.75;;;24.68;45.67
67738;BME280;54534;43.612;1.572;2022-09-09T00:28:19;99147.91;;;24.66;46.37
67738;BME280;54534;43.612;1.572;2022-09-09T00:30:46;99151.63;;;24.65;46.04
67738;BME280;54534;43.612;1.572;2022-09-09T00:33:15;99155.47;;;24.63;45.86
67738;BME280;54534;43.612;1.572;2022-09-09T00:35:46;99160.69;;;24.64;46.03
67738;BME280;54534;43.612;1.572;2022-09-09T00:38:26;99161.66;;;24.63;45.79
67738;BME280;54534;43.612;1.572;2022-09-09T00:41:03;99153.78;;;24.62;45.57
67738;BME280;54534;43.612;1.572;2022-09-09T00:43:36;99159.16;;;24.62;45.64
67738;BME280;54534;43.612;1.572;2022-09-09T00:46:21;99152.09;;;24.61;45.50
67738;BME280;54534;43.612;1.572;2022-09-09T00:49:12;99147.56;;;24.61;45.72
67738;BME280;54534;43.612;1.572;2022-09-09T00:57:54;99144.53;;;24.56;45.84
67738;BME280;54534;43.612;1.572;2022-09-09T01:07:58;99159.97;;;24.54;46.20
67738;BME280;54534;43.612;1.572;2022-09-09T01:10:43;99161.81;;;24.53;46.07
67738;BME280;54534;43.612;1.572;2022-09-09T01:13:33;99152.91;;;24.53;46.16
67738;BME280;54534;43.612;1.572;2022-09-09T01:16:02;99159.13;;;24.53;46.16
67738;BME280;54534;43.612;1.572;2022-09-09T01:18:49;99159.97;;;24.54;46.19
67738;BME280;54534;43.612;1.572;2022-09-09T01:26:46;99167.53;;;24.50;46.56
67738;BME280;54534;43.612;1.572;2022-09-09T01:29:15;99174.72;;;24.50;46.66
67738;BME280;54534;43.612;1.572;2022-09-09T01:31:52;99168.38;;;24.51;46.58
67738;BME280;54534;43.612;1.572;2022-09-09T01:34:18;99174.72;;;24.50;46.50
67738;BME280;54534;43.612;1.572;2022-09-09T01:39:18;99179.44;;;24.48;46.58
67738;BME280;54534;43.612;1.572;2022-09-09T01:41:44;99190.19;;;24.48;46.47
67738;BME280;54534;43.612;1.572;2022-09-09T01:44:10;99194.72;;;24.47;46.35
67738;BME280;54534;43.612;1.572;2022-09-09T01:46:36;99201.13;;;24.46;46.49
67738;BME280;54534;43.612;1.572;2022-09-09T01:49:03;99205.47;;;24.47;46.60
67738;BME280;54534;43.612;1.572;2022-09-09T01:51:30;99205.47;;;24.47;46.48
67738;BME280;54534;43.612;1.572;2022-09-09T01:53:55;99204.66;;;24.47;46.28
67738;BME280;54534;43.612;1.572;2022-09-09T02:06:55;99163.63;;;24.44;46.77
67738;BME280;54534;43.612;1.572;2022-09-09T02:09:23;99173.72;;;24.42;46.82
67738;BME280;54534;43.612;1.572;2022-09-09T02:11:55;99190.69;;;24.43;46.68
67738;BME280;54534;43.612;1.572;2022-09-09T02:14:29;99184.31;;;24.44;46.73
67738;BME280;54534;43.612;1.572;2022-09-09T02:17:02;99191.69;;;24.42;46.64
67738;BME280;54534;43.612;1.572;2022-09-09T02:19:42;99204.13;;;24.43;46.22
67738;BME280;54534;43.612;1.572;2022-09-09T02:22:11;99210.50;;;24.42;46.64
67738;BME280;54534;43.612;1.572;2022-09-09T02:24:38;99215.88;;;24.42;46.41
67738;BME280;54534;43.612;1.572;2022-09-09T02:27:06;99211.50;;;24.41;46.16
67738;BME280;54534;43.612;1.572;2022-09-09T02:29:36;99214.19;;;24.41;46.31
67738;BME280;54534;43.612;1.572;2022-09-09T02:32:06;99206.13;;;24.41;46.35
67738;BME280;54534;43.612;1.572;2022-09-09T02:34:36;99203.59;;;24.39;46.24
67738;BME280;54534;43.612;1.572;2022-09-09T02:37:03;99215.19;;;24.40;45.87
67738;BME280;54534;43.612;1.572;2022-09-09T02:39:29;99215.19;;;24.40;45.78
67738;BME280;54534;43.612;1.572;2022-09-09T02:41:55;99212.50;;;24.40;45.83
67738;BME280;54534;43.612;1.572;2022-09-09T02:44:21;99208.16;;;24.39;45.81
67738;BME280;54534;43.612;1.572;2022-09-09T02:47:13;99205.47;;;24.39;45.70
67738;BME280;54534;43.612;1.572;2022-09-09T02:52:42;99202.91;;;24.37;45.53
67738;BME280;54534;43.612;1.572;2022-09-09T02:55:41;99193.19;;;24.36;45.78
67738;BME280;54534;43.612;1.572;2022-09-09T02:58:10;99188.81;;;24.35;45.45
67738;BME280;54534;43.612;1.572;2022-09-09T03:00:38;99189.00;;;24.33;45.69
67738;BME280;54534;43.612;1.572;2022-09-09T03:03:05;99195.19;;;24.34;45.60
67738;BME280;54534;43.612;1.572;2022-09-09T03:05:32;99193.50;;;24.33;45.76
67738;BME280;54534;43.612;1.572;2022-09-09T03:07:58;99199.72;;;24.33;45.74
67738;BME280;54534;43.612;1.572;2022-09-09T03:10:23;99203.41;;;24.32;45.77
67738;BME280;54534;43.612;1.572;2022-09-09T03:12:48;99202.41;;;24.33;45.84
67738;BME280;54534;43.612;1.572;2022-09-09T03:15:15;99198.03;;;24.32;45.71
67738;BME280;54534;43.612;1.572;2022-09-09T03:17:41;99196.19;;;24.33;45.51
67738;BME280;54534;43.612;1.572;2022-09-09T03:20:07;99204.41;;;24.31;45.53
67738;BME280;54534;43.612;1.572;2022-09-09T03:22:33;99211.66;;;24.31;45.31
67738;BME280;54534;43.612;1.572;2022-09-09T03:24:59;99214.16;;;24.32;45.33
67738;BME280;54534;43.612;1.572;2022-09-09T03:27:24;99214.16;;;24.32;45.51
67738;BME280;54534;43.612;1.572;2022-09-09T03:29:50;99217.84;;;24.31;45.57
67738;BME280;54534;43.612;1.572;2022-09-09T03:32:17;99221.53;;;24.30;45.23
67738;BME280;54534;43.612;1.572;2022-09-09T03:34:42;99206.28;;;24.31;45.43
67738;BME280;54534;43.612;1.572;2022-09-09T03:37:08;99198.34;;;24.29;45.33
67738;BME280;54534;43.612;1.572;2022-09-09T03:39:33;99200.38;;;24.27;45.37
67738;BME280;54534;43.612;1.572;2022-09-09T03:41:59;99210.81;;;24.30;45.49
67738;BME280;54534;43.612;1.572;2022-09-09T03:44:24;99211.78;;;24.29;45.38
67738;BME280;54534;43.612;1.572;2022-09-09T03:46:49;99217.16;;;24.29;45.11
67738;BME280;54534;43.612;1.572;2022-09-09T03:49:15;99216.31;;;24.29;45.07
67738;BME280;54534;43.612;1.572;2022-09-09T03:51:42;99217.34;;;24.28;45.12
67738;BME280;54534;43.612;1.572;2022-09-09T03:54:07;99223.56;;;24.28;45.19
67738;BME280;54534;43.612;1.572;2022-09-09T03:56:34;99227.25;;;24.27;45.11
67738;BME280;54534;43.612;1.572;2022-09-09T03:59:00;99218.31;;;24.27;44.93
67738;BME280;54534;43.612;1.572;2022-09-09T04:01:25;99208.56;;;24.26;45.13
67738;BME280;54534;43.612;1.572;2022-09-09T04:03:51;99196.84;;;24.27;45.04
67738;BME280;54534;43.612;1.572;2022-09-09T04:06:18;99196.97;;;24.25;44.97
67738;BME280;54534;43.612;1.572;2022-09-09T04:08:45;99214.09;;;24.24;45.11
67738;BME280;54534;43.612;1.572;2022-09-09T04:11:13;99222.16;;;24.24;45.37
67738;BME280;54534;43.612;1.572;2022-09-09T04:13:39;99228.38;;;24.25;45.29
67738;BME280;54534;43.612;1.572;2022-09-09T04:16:05;99219.47;;;24.24;45.11
67738;BME280;54534;43.612;1.572;2022-09-09T04:18:31;99222.16;;;24.24;45.13
67738;BME280;54534;43.612;1.572;2022-09-09T04:20:57;99226.66;;;24.24;44.98
67738;BME280;54534;43.612;1.572;2022-09-09T04:23:24;99220.47;;;24.23;45.46
67738;BME280;54534;43.612;1.572;2022-09-09T04:25:51;99219.63;;;24.22;45.13
67738;BME280;54534;43.612;1.572;2022-09-09T04:28:18;99228.69;;;24.21;45.30
67738;BME280;54534;43.612;1.572;2022-09-09T04:30:45;99225.16;;;24.21;45.54
67738;BME280;54534;43.612;1.572;2022-09-09T04:33:11;99221.47;;;24.22;45.76
67738;BME280;54534;43.612;1.572;2022-09-09T04:35:37;99224.16;;;24.22;45.68
67738;BME280;54534;43.612;1.572;2022-09-09T04:38:04;99220.78;;;24.20;45.83
67738;BME280;54534;43.612;1.572;2022-09-09T04:40:30;99229.53;;;24.22;45.88
67738;BME280;54534;43.612;1.572;2022-09-09T04:43:02;99220.78;;;24.20;45.97
67738;BME280;54534;43.612;1.572;2022-09-09T04:45:30;99212.06;;;24.18;46.16
67738;BME280;54534;43.612;1.572;2022-09-09T04:47:56;99215.44;;;24.20;46.18
67738;BME280;54534;43.612;1.572;2022-09-09T04:50:21;99216.28;;;24.20;46.17
67738;BME280;54534;43.612;1.572;2022-09-09T04:52:47;99221.66;;;24.20;46.02
67738;BME280;54534;43.612;1.572;2022-09-09T04:55:13;99226.16;;;24.20;46.00
67738;BME280;54534;43.612;1.572;2022-09-09T04:57:40;99229.00;;;24.18;45.95
67738;BME280;54534;43.612;1.572;2022-09-09T05:00:06;99228.19;;;24.18;45.92
67738;BME280;54534;43.612;1.572;2022-09-09T05:02:32;99231.00;;;24.16;45.85
67738;BME280;54534;43.612;1.572;2022-09-09T05:04:58;99234.84;;;24.14;45.82
67738;BME280;54534;43.612;1.572;2022-09-09T05:07:24;99233.03;;;24.14;45.99
67738;BME280;54534;43.612;1.572;2022-09-09T05:09:51;99241.25;;;24.13;46.20
67738;BME280;54534;43.612;1.572;2022-09-09T05:12:17;99245.78;;;24.12;45.77
67738;BME280;54534;43.612;1.572;2022-09-09T05:14:43;99249.44;;;24.11;45.85
67738;BME280;54534;43.612;1.572;2022-09-09T05:17:09;99251.47;;;24.09;46.12
67738;BME280;54534;43.612;1.572;2022-09-09T05:19:34;99257.69;;;24.09;46.15
67738;BME280;54534;43.612;1.572;2022-09-09T05:22:00;99265.88;;;24.08;46.19
67738;BME280;54534;43.612;1.572;2022-09-09T05:24:26;99275.94;;;24.06;46.25
67738;BME280;54534;43.612;1.572;2022-09-09T05:26:51;99278.63;;;24.06;46.28
67738;BME280;54534;43.612;1.572;2022-09-09T05:29:17;99279.78;;;24.03;46.38
67738;BME280;54534;43.612;1.572;2022-09-09T05:31:44;99276.44;;;24.01;46.36
67738;BME280;54534;43.612;1.572;2022-09-09T05:34:10;99272.88;;;24.00;46.66
67738;BME280;54534;43.612;1.572;2022-09-09T05:36:36;99283.81;;;23.99;46.93
67738;BME280;54534;43.612;1.572;2022-09-09T05:39:02;99284.13;;;23.96;47.07
67738;BME280;54534;43.612;1.572;2022-09-09T05:41:28;99286.13;;;23.94;47.38
67738;BME280;54534;43.612;1.572;2022-09-09T05:43:54;99288.09;;;23.92;47.90
67738;BME280;54534;43.612;1.572;2022-09-09T05:46:22;99295.34;;;23.91;47.93
67738;BME280;54534;43.612;1.572;2022-09-09T05:48:50;99295.47;;;23.89;48.30
67738;BME280;54534;43.612;1.572;2022-09-09T05:51:19;99292.78;;;23.89;48.10
67738;BME280;54534;43.612;1.572;2022-09-09T05:53:46;99302.69;;;23.89;48.12
67738;BME280;54534;43.612;1.572;2022-09-09T05:56:19;99307.06;;;23.90;48.05
67738;BME280;54534;43.612;1.572;2022-09-09T05:58:47;99308.75;;;23.91;47.85
67738;BME280;54534;43.612;1.572;2022-09-09T06:01:16;99308.75;;;23.91;47.94
67738;BME280;54534;43.612;1.572;2022-09-09T06:03:43;99318.47;;;23.92;47.93
67738;BME280;54534;43.612;1.572;2022-09-09T06:06:12;99328.38;;;23.92;47.62
67738;BME280;54534;43.612;1.572;2022-09-09T06:08:40;99328.22;;;23.93;47.74
67738;BME280;54534;43.612;1.572;2022-09-09T06:11:12;99324.69;;;23.93;47.72
67738;BME280;54534;43.612;1.572;2022-09-09T06:13:38;99324.53;;;23.94;47.66
67738;BME280;54534;43.612;1.572;2022-09-09T06:16:08;99327.22;;;23.94;47.48
67738;BME280;54534;43.612;1.572;2022-09-09T06:18:34;99323.53;;;23.95;47.63
67738;BME280;54534;43.612;1.572;2022-09-09T06:21:02;99322.69;;;23.95;47.44
67738;BME280;54534;43.612;1.572;2022-09-09T06:23:32;99320.84;;;23.95;47.56
67738;BME280;54534;43.612;1.572;2022-09-09T06:26:18;99314.63;;;23.95;47.57
67738;BME280;54534;43.612;1.572;2022-09-09T06:28:48;99316.34;;;23.96;47.43
67738;BME280;54534;43.612;1.572;2022-09-09T06:31:16;99318.00;;;23.97;47.23
67738;BME280;54534;43.612;1.572;2022-09-09T06:33:52;99310.28;;;23.94;47.52
67738;BME280;54534;43.612;1.572;2022-09-09T06:36:21;99315.31;;;23.97;47.52
67738;BME280;54534;43.612;1.572;2022-09-09T06:38:47;99308.13;;;23.97;47.40
67738;BME280;54534;43.612;1.572;2022-09-09T06:41:15;99313.47;;;23.97;47.36
67738;BME280;54534;43.612;1.572;2022-09-09T06:43:41;99309.94;;;23.97;47.39
67738;BME280;54534;43.612;1.572;2022-09-09T06:46:20;99304.44;;;23.98;47.41
67738;BME280;54534;43.612;1.572;2022-09-09T06:48:47;99306.28;;;23.98;47.45
67738;BME280;54534;43.612;1.572;2022-09-09T06:51:23;99313.19;;;24.00;47.32
67738;BME280;54534;43.612;1.572;2022-09-09T06:53:53;99309.81;;;23.98;47.19
67738;BME280;54534;43.612;1.572;2022-09-09T06:58:46;99317.69;;;24.00;47.14
67738;BME280;54534;43.612;1.572;2022-09-09T07:01:14;99313.19;;;24.00;47.21
67738;BME280;54534;43.612;1.572;2022-09-09T07:03:41;99313.34;;;23.99;47.04
67738;BME280;54534;43.612;1.572;2022-09-09T07:06:08;99306.94;;;24.00;47.17
67738;BME280;54534;43.612;1.572;2022-09-09T07:08:34;99317.69;;;24.00;47.25
67738;BME280;54534;43.612;1.572;2022-09-09T07:11:03;99317.56;;;24.02;47.13
67738;BME280;54534;43.612;1.572;2022-09-09T07:13:30;99318.53;;;24.00;46.72
67738;BME280;54534;43.612;1.572;2022-09-09T07:16:11;99318.38;;;24.02;47.01
67738;BME280;54534;43.612;1.572;2022-09-09T07:18:39;99323.75;;;24.02;46.94
67738;BME280;54534;43.612;1.572;2022-09-09T07:21:04;99314.03;;;24.01;46.91
67738;BME280;54534;43.612;1.572;2022-09-09T07:23:32;99310.31;;;24.02;46.92
67738;BME280;54534;43.612;1.572;2022-09-09T07:25:57;99304.13;;;24.02;47.06
67738;BME280;54534;43.612;1.572;2022-09-09T07:28:24;99320.06;;;24.03;47.01
67738;BME280;54534;43.612;1.572;2022-09-09T07:30:57;99318.38;;;24.02;46.99
67738;BME280;54534;43.612;1.572;2022-09-09T07:33:24;99313.84;;;24.03;46.90
67738;BME280;54534;43.612;1.572;2022-09-09T07:35:50;99310.50;;;24.00;46.96
67738;BME280;54534;43.612;1.572;2022-09-09T07:38:16;99312.88;;;24.04;46.97
67738;BME280;54534;43.612;1.572;2022-09-09T07:40:41;99321.78;;;24.04;46.75
67738;BME280;54534;43.612;1.572;2022-09-09T07:43:07;99320.91;;;24.04;47.03
67738;BME280;54534;43.612;1.572;2022-09-09T07:45:34;99322.75;;;24.03;46.70
67738;BME280;54534;43.612;1.572;2022-09-09T07:48:00;99325.44;;;24.03;46.96
67738;BME280;54534;43.612;1.572;2022-09-09T07:50:26;99321.78;;;24.04;46.74
67738;BME280;54534;43.612;1.572;2022-09-09T07:52:52;99328.97;;;24.04;46.69
67738;BME280;54534;43.612;1.572;2022-09-09T07:55:19;99334.19;;;24.05;46.75
67738;BME280;54534;43.612;1.572;2022-09-09T07:57:45;99322.59;;;24.05;46.70
67738;BME280;54534;43.612;1.572;2022-09-09T08:00:11;99330.81;;;24.03;46.74
67738;BME280;54534;43.612;1.572;2022-09-09T08:02:36;99327.97;;;24.05;46.65
67738;BME280;54534;43.612;1.572;2022-09-09T08:05:02;99331.50;;;24.05;46.97
67738;BME280;54534;43.612;1.572;2022-09-09T08:07:27;99343.94;;;24.06;46.63
67738;BME280;54534;43.612;1.572;2022-09-09T08:09:54;99338.72;;;24.05;46.87
67738;BME280;54534;43.612;1.572;2022-09-09T08:12:21;99337.88;;;24.04;46.91
67738;BME280;54534;43.612;1.572;2022-09-09T08:14:46;99333.34;;;24.05;46.95
67738;BME280;54534;43.612;1.572;2022-09-09T08:17:11;99345.09;;;24.04;47.07
67738;BME280;54534;43.612;1.572;2022-09-09T08:19:37;99343.94;;;24.06;47.16
67738;BME280;54534;43.612;1.572;2022-09-09T08:22:02;99343.25;;;24.04;47.09
67738;BME280;54534;43.612;1.572;2022-09-09T08:24:28;99352.13;;;24.05;47.04
67738;BME280;54534;43.612;1.572;2022-09-09T08:26:54;99363.72;;;24.05;47.16
67738;BME280;54534;43.612;1.572;2022-09-09T08:29:22;99357.50;;;24.05;47.10
67738;BME280;54534;43.612;1.572;2022-09-09T08:31:52;99359.22;;;24.06;47.10
67738;BME280;54534;43.612;1.572;2022-09-09T08:34:19;99361.22;;;24.04;46.80
67738;BME280;54534;43.612;1.572;2022-09-09T08:36:46;99359.22;;;24.06;47.15
67738;BME280;54534;43.612;1.572;2022-09-09T08:39:15;99363.72;;;24.05;47.14
67738;BME280;54534;43.612;1.572;2022-09-09T08:54:57;99394.28;;;24.04;47.05
67738;BME280;54534;43.612;1.572;2022-09-09T08:57:27;99392.28;;;24.06;47.27
67738;BME280;54534;43.612;1.572;2022-09-09T08:59:55;99396.81;;;24.06;46.93
67738;BME280;54534;43.612;1.572;2022-09-09T09:02:41;99408.41;;;24.06;46.97
67738;BME280;54534;43.612;1.572;2022-09-09T09:05:20;99404.00;;;24.05;46.89
67738;BME280;54534;43.612;1.572;2022-09-09T09:10:47;99420.81;;;24.07;47.15
67738;BME280;54534;43.612;1.572;2022-09-09T09:13:20;99429.88;;;24.06;46.93
67738;BME280;54534;43.612;1.572;2022-09-09T09:15:56;99436.94;;;24.07;47.22
67738;BME280;54534;43.612;1.572;2022-09-09T09:18:23;99440.63;;;24.06;47.29
67738;BME280;54534;43.612;1.572;2022-09-09T09:21:10;99435.25;;;24.06;47.13
67738;BME280;54534;43.612;1.572;2022-09-09T09:23:58;99444.16;;;24.07;46.93
67738;BME280;54534;43.612;1.572;2022-09-09T09:26:30;99453.38;;;24.04;47.08
67738;BME280;54534;43.612;1.572;2022-09-09T09:28:58;99455.03;;;24.05;47.10
67738;BME280;54534;43.612;1.572;2022-09-09T09:31:24;99457.72;;;24.05;47.23
67738;BME280;54534;43.612;1.572;2022-09-09T09:33:56;99474.53;;;24.07;47.25
67738;BME280;54534;43.612;1.572;2022-09-09T09:36:34;99473.72;;;24.07;46.95
67738;BME280;54534;43.612;1.572;2022-09-09T09:39:00;99479.91;;;24.07;47.03
67738;BME280;54534;43.612;1.572;2022-09-09T09:41:35;99489.66;;;24.08;47.01
67738;BME280;54534;43.612;1.572;2022-09-09T09:44:02;99485.59;;;24.04;47.10
67738;BME280;54534;43.612;1.572;2022-09-09T09:46:28;99496.03;;;24.07;47.29
67738;BME280;54534;43.612;1.572;2022-09-09T09:49:04;99495.03;;;24.08;47.04
67738;BME280;54534;43.612;1.572;2022-09-09T09:51:32;99501.38;;;24.07;46.93
67738;BME280;54534;43.612;1.572;2022-09-09T09:56:39;99505.09;;;24.06;47.09
67738;BME280;54534;43.612;1.572;2022-09-09T09:59:11;99512.13;;;24.07;47.07
67738;BME280;54534;43.612;1.572;2022-09-09T10:01:44;99517.50;;;24.07;47.13
67738;BME280;54534;43.612;1.572;2022-09-09T10:04:21;99505.78;;;24.08;46.98
67738;BME280;54534;43.612;1.572;2022-09-09T10:06:50;99518.34;;;24.08;46.82
67738;BME280;54534;43.612;1.572;2022-09-09T10:09:33;99525.56;;;24.07;46.92
67738;BME280;54534;43.612;1.572;2022-09-09T10:14:38;99529.97;;;24.08;47.06
67738;BME280;54534;43.612;1.572;2022-09-09T10:22:34;99533.63;;;24.07;46.91
67738;BME280;54534;43.612;1.572;2022-09-09T10:25:27;99539.00;;;24.07;46.89
67738;BME280;54534;43.612;1.572;2022-09-09T10:36:28;99546.38;;;24.05;46.89
67738;BME280;54534;43.612;1.572;2022-09-09T10:39:59;99548.06;;;24.06;46.88
67738;BME280;54534;43.612;1.572;2022-09-09T10:42:04;99546.22;;;24.07;46.75
67738;BME280;54534;43.612;1.572;2022-09-09T10:44:36;99547.06;;;24.07;46.82
67738;BME280;54534;43.612;1.572;2022-09-09T10:50:18;99530.94;;;24.07;46.93
67738;BME280;54534;43.612;1.572;2022-09-09T10:53:08;99531.09;;;24.06;46.87
67738;BME280;54534;43.612;1.572;2022-09-09T10:55:43;99523.22;;;24.04;46.73
67738;BME280;54534;43.612;1.572;2022-09-09T10:58:14;99522.88;;;24.07;46.74
67738;BME280;54534;43.612;1.572;2022-09-09T11:00:45;99518.66;;;24.05;46.82
67738;BME280;54534;43.612;1.572;2022-09-09T11:03:25;99514.13;;;24.05;46.95
67738;BME280;54534;43.612;1.572;2022-09-09T11:06:03;99514.00;;;24.07;46.98
67738;BME280;54534;43.612;1.572;2022-09-09T11:08:30;99499.72;;;24.06;46.79
67738;BME280;54534;43.612;1.572;2022-09-09T11:13:55;99497.03;;;24.06;46.87
67738;BME280;54534;43.612;1.572;2022-09-09T11:19:34;99488.28;;;24.04;46.76
67738;BME280;54534;43.612;1.572;2022-09-09T11:30:21;99492.66;;;24.05;46.73
67738;BME280;54534;43.612;1.572;2022-09-09T11:38:47;99499.03;;;24.04;46.95
67738;BME280;54534;43.612;1.572;2022-09-09T11:41:14;99495.34;;;24.05;46.82
67738;BME280;54534;43.612;1.572;2022-09-09T11:43:45;99479.22;;;24.05;46.77
67738;BME280;54534;43.612;1.572;2022-09-09T11:46:15;99477.38;;;24.06;46.93
67738;BME280;54534;43.612;1.572;2022-09-09T11:48:44;99475.69;;;24.05;46.68
67738;BME280;54534;43.612;1.572;2022-09-09T11:51:33;99480.06;;;24.06;46.88
67738;BME280;54534;43.612;1.572;2022-09-09T11:54:32;99479.22;;;24.05;46.79
67738;BME280;54534;43.612;1.572;2022-09-09T11:57:04;99483.75;;;24.05;46.74
67738;BME280;54534;43.612;1.572;2022-09-09T11:59:50;99472.19;;;24.04;46.90
67738;BME280;54534;43.612;1.572;2022-09-09T12:02:25;99480.06;;;24.06;46.86
67738;BME280;54534;43.612;1.572;2022-09-09T12:05:01;99473.84;;;24.05;46.92
67738;BME280;54534;43.612;1.572;2022-09-09T12:07:52;99476.53;;;24.05;46.73
67738;BME280;54534;43.612;1.572;2022-09-09T12:12:46;99473.84;;;24.05;46.75
67738;BME280;54534;43.612;1.572;2022-09-09T12:22:55;99499.72;;;24.06;46.75
67738;BME280;54534;43.612;1.572;2022-09-09T12:28:41;99503.41;;;24.05;46.79
67738;BME280;54534;43.612;1.572;2022-09-09T12:31:14;99500.72;;;24.05;46.80
67738;BME280;54534;43.612;1.572;2022-09-09T12:33:44;99505.09;;;24.06;47.07
67738;BME280;54534;43.612;1.572;2022-09-09T12:36:19;99501.56;;;24.06;46.76
67738;BME280;54534;43.612;1.572;2022-09-09T12:38:47;99494.34;;;24.06;46.88
67738;BME280;54534;43.612;1.572;2022-09-09T12:43:45;99500.56;;;24.07;46.95
67738;BME280;54534;43.612;1.572;2022-09-09T12:46:21;99495.34;;;24.05;47.13
67738;BME280;54534;43.612;1.572;2022-09-09T12:48:47;99496.19;;;24.06;46.90
67738;BME280;54534;43.612;1.572;2022-09-09T12:51:25;99503.25;;;24.07;46.94
67738;BME280;54534;43.612;1.572;2022-09-09T12:53:51;99497.03;;;24.06;46.87
67738;BME280;54534;43.612;1.572;2022-09-09T12:56:22;99497.03;;;24.06;46.87
67738;BME280;54534;43.612;1.572;2022-09-09T12:58:52;99490.97;;;24.04;46.90
67738;BME280;54534;43.612;1.572;2022-09-09T13:03:50;99497.03;;;24.06;46.74
67738;BME280;54534;43.612;1.572;2022-09-09T13:06:24;99489.81;;;24.07;46.67
67738;BME280;54534;43.612;1.572;2022-09-09T13:08:54;99488.13;;;24.06;47.07
67738;BME280;54534;43.612;1.572;2022-09-09T13:11:26;99486.28;;;24.06;46.79
67738;BME280;54534;43.612;1.572;2022-09-09T13:13:55;99490.81;;;24.06;46.85
67738;BME280;54534;43.612;1.572;2022-09-09T13:16:31;99490.66;;;24.07;46.82
67738;BME280;54534;43.612;1.572;2022-09-09T13:18:59;99480.25;;;24.04;46.96
67738;BME280;54534;43.612;1.572;2022-09-09T13:21:35;99479.91;;;24.07;46.86
67738;BME280;54534;43.612;1.572;2022-09-09T13:24:04;99479.09;;;24.07;46.78
67738;BME280;54534;43.612;1.572;2022-09-09T13:26:33;99472.88;;;24.06;46.72
67738;BME280;54534;43.612;1.572;2022-09-09T13:29:28;99476.41;;;24.07;46.74
67738;BME280;54534;43.612;1.572;2022-09-09T13:32:03;99467.50;;;24.06;46.82
67738;BME280;54534;43.612;1.572;2022-09-09T13:34:34;99466.47;;;24.07;46.78
67738;BME280;54534;43.612;1.572;2022-09-09T13:37:05;99458.41;;;24.07;46.66
67738;BME280;54534;43.612;1.572;2022-09-09T13:39:36;99455.72;;;24.07;46.73
67738;BME280;54534;43.612;1.572;2022-09-09T13:42:03;99452.22;;;24.07;46.76
67738;BME280;54534;43.612;1.572;2022-09-09T13:44:35;99455.72;;;24.07;46.74
67738;BME280;54534;43.612;1.572;2022-09-09T13:49:34;99440.63;;;24.06;46.78
67738;BME280;54534;43.612;1.572;2022-09-09T13:52:13;99437.94;;;24.06;46.73
67738;BME280;54534;43.612;1.572;2022-09-09T13:54:40;99435.25;;;24.06;46.80
67738;BME280;54534;43.612;1.572;2022-09-09T13:57:14;99441.47;;;24.07;46.83
67738;BME280;54534;43.612;1.572;2022-09-09T13:59:40;99436.94;;;24.07;46.72
67738;BME280;54534;43.612;1.572;2022-09-09T14:02:07;99431.56;;;24.07;46.80
67738;BME280;54534;43.612;1.572;2022-09-09T14:04:32;99432.56;;;24.06;47.04
67738;BME280;54534;43.612;1.572;2022-09-09T14:07:00;99428.88;;;24.07;46.66
67738;BME280;54534;43.612;1.572;2022-09-09T14:09:26;99436.78;;;24.09;46.59
67738;BME280;54534;43.612;1.572;2022-09-09T14:11:51;99426.19;;;24.07;46.53
67738;BME280;54534;43.612;1.572;2022-09-09T14:14:16;99427.88;;;24.08;46.59
67738;BME280;54534;43.612;1.572;2022-09-09T14:16:42;99432.28;;;24.09;46.74
67738;BME280;54534;43.612;1.572;2022-09-09T14:19:08;99424.34;;;24.08;46.60
67738;BME280;54534;43.612;1.572;2022-09-09T14:21:34;99418.13;;;24.07;46.82
67738;BME280;54534;43.612;1.572;2022-09-09T14:23:59;99421.66;;;24.08;46.60
67738;BME280;54534;43.612;1.572;2022-09-09T14:26:25;99414.47;;;24.08;46.57
67738;BME280;54534;43.612;1.572;2022-09-09T14:28:51;99415.44;;;24.07;46.81
67738;BME280;54534;43.612;1.572;2022-09-09T14:31:17;99416.28;;;24.08;46.81
67738;BME280;54534;43.612;1.572;2022-09-09T14:33:46;99411.78;;;24.08;46.65
67738;BME280;54534;43.612;1.572;2022-09-09T14:36:11;99406.41;;;24.08;46.73
67738;BME280;54534;43.612;1.572;2022-09-09T14:38:38;99410.25;;;24.06;46.67
67738;BME280;54534;43.612;1.572;2022-09-09T14:41:05;99408.09;;;24.09;46.54
67738;BME280;54534;43.612;1.572;2022-09-09T14:43:31;99403.88;;;24.07;46.83
67738;BME280;54534;43.612;1.572;2022-09-09T14:46:07;99397.50;;;24.08;46.41
67738;BME280;54534;43.612;1.572;2022-09-09T14:48:33;99390.28;;;24.08;46.78
67738;BME280;54534;43.612;1.572;2022-09-09T14:51:08;99398.16;;;24.10;46.70
67738;BME280;54534;43.612;1.572;2022-09-09T14:53:34;99394.66;;;24.09;46.78
67738;BME280;54534;43.612;1.572;2022-09-09T14:56:07;99379.53;;;24.08;46.60
67738;BME280;54534;43.612;1.572;2022-09-09T14:58:34;99381.22;;;24.09;46.52
67738;BME280;54534;43.612;1.572;2022-09-09T15:01:11;99382.06;;;24.10;46.64
67738;BME280;54534;43.612;1.572;2022-09-09T15:03:37;99386.59;;;24.09;46.63
67738;BME280;54534;43.612;1.572;2022-09-09T15:06:12;99365.44;;;24.06;46.63
67738;BME280;54534;43.612;1.572;2022-09-09T15:08:41;99371.66;;;24.07;46.61
67738;BME280;54534;43.612;1.572;2022-09-09T15:11:07;99373.00;;;24.11;46.57
67738;BME280;54534;43.612;1.572;2022-09-09T15:13:33;99371.31;;;24.10;46.58
67738;BME280;54534;43.612;1.572;2022-09-09T15:16:11;99371.31;;;24.10;46.45
67738;BME280;54534;43.612;1.572;2022-09-09T15:18:37;99368.63;;;24.10;46.66
67738;BME280;54534;43.612;1.572;2022-09-09T15:21:11;99367.81;;;24.09;46.51